| time (UTC) | temp F | wind direction | speed MPH | gust MPH | rain 1hr in | rain 24hr in | rain mn in | humidity % | barometer mb |
| 20260504214534 | 81 | 135 | 3.0 | 10.0 | 0.00 | 0.00 | 0.00 | 48 | 1008.0 |
| 20260504214034 | 81 | 154 | 3.0 | 10.0 | 0.00 | 0.00 | 0.00 | 48 | 1008.0 |
| 20260504213533 | 81 | 212 | 4.0 | 9.0 | 0.00 | 0.00 | 0.00 | 48 | 1008.1 |
| 20260504213032 | 81 | 142 | 3.0 | 11.0 | 0.00 | 0.00 | 0.00 | 49 | 1008.1 |
| 20260504212532 | 81 | 167 | 5.0 | 9.0 | 0.00 | 0.00 | 0.00 | 48 | 1008.2 |
| 20260504212030 | 81 | 291 | 1.0 | 13.0 | 0.00 | 0.00 | 0.00 | 48 | 1008.3 |
| 20260504211531 | 80 | 271 | 6.0 | 13.0 | 0.00 | 0.00 | 0.00 | 48 | 1008.3 |
| 20260504211028 | 81 | 184 | 5.0 | 17.0 | 0.00 | 0.00 | 0.00 | 48 | 1008.4 |
| 20260504210528 | 81 | 260 | 6.0 | 17.0 | 0.00 | 0.00 | 0.00 | 47 | 1008.5 |
| 20260504210036 | 81 | 113 | 2.0 | 11.0 | 0.00 | 0.00 | 0.00 | 50 | 1008.6 |
| 20260504205527 | 81 | 227 | 3.0 | 12.0 | 0.00 | 0.00 | 0.00 | 47 | 1008.6 |
| 20260504205026 | 80 | 261 | 2.0 | 14.0 | 0.00 | 0.00 | 0.00 | 48 | 1008.7 |
| 20260504204526 | 80 | 229 | 6.0 | 14.0 | 0.00 | 0.00 | 0.00 | 48 | 1008.8 |
| 20260504204025 | 81 | 241 | 5.0 | 15.0 | 0.00 | 0.00 | 0.00 | 48 | 1008.7 |
| 20260504203525 | 81 | 213 | 7.0 | 15.0 | 0.00 | 0.00 | 0.00 | 46 | 1008.8 |
| 20260504203031 | 82 | 253 | 1.0 | 15.0 | 0.00 | 0.00 | 0.00 | 48 | 1008.8 |
| 20260504202522 | 81 | 248 | 2.0 | 15.0 | 0.00 | 0.00 | 0.00 | 48 | 1009.0 |
| 20260504202021 | 81 | 348 | 2.0 | 11.0 | 0.00 | 0.00 | 0.00 | 48 | 1009.1 |
| 20260504201521 | 81 | 149 | 2.0 | 11.0 | 0.00 | 0.00 | 0.00 | 50 | 1009.2 |
| 20260504201021 | 81 | 307 | 4.0 | 9.0 | 0.00 | 0.00 | 0.00 | 47 | 1009.5 |
| 20260504200520 | 81 | 180 | 0.0 | 14.0 | 0.00 | 0.00 | 0.00 | 51 | 1009.4 |
| 20260504200021 | 81 | 43 | 4.0 | 14.0 | 0.00 | 0.00 | 0.00 | 48 | 1009.6 |
| 20260504195517 | 80 | 290 | 4.0 | 15.0 | 0.00 | 0.00 | 0.00 | 48 | 1009.5 |
| 20260504195017 | 80 | 175 | 4.0 | 15.0 | 0.00 | 0.00 | 0.00 | 47 | 1009.7 |
| 20260504194531 | 81 | 266 | 4.0 | 14.0 | 0.00 | 0.00 | 0.00 | 47 | 1009.7 |
| 20260504194016 | 80 | 149 | 7.0 | 19.0 | 0.00 | 0.00 | 0.00 | 47 | 1009.8 |
| 20260504193517 | 80 | 144 | 4.0 | 19.0 | 0.00 | 0.00 | 0.00 | 47 | 1009.8 |
| 20260504193018 | 81 | 151 | 5.0 | 13.0 | 0.00 | 0.00 | 0.00 | 48 | 1009.9 |
| 20260504192513 | 80 | 295 | 4.0 | 13.0 | 0.00 | 0.00 | 0.00 | 47 | 1010.0 |
| 20260504192013 | 80 | 350 | 3.0 | 12.0 | 0.00 | 0.00 | 0.00 | 49 | 1010.0 |
| 20260504191512 | 80 | 221 | 4.0 | 13.0 | 0.00 | 0.00 | 0.00 | 48 | 1010.3 |
| 20260504191013 | 80 | 163 | 8.0 | 13.0 | 0.00 | 0.00 | 0.00 | 47 | 1010.2 |
| 20260504190512 | 80 | 258 | 2.0 | 15.0 | 0.00 | 0.00 | 0.00 | 48 | 1010.4 |
| 20260504190011 | 80 | 142 | 5.0 | 16.0 | 0.00 | 0.00 | 0.00 | 48 | 1010.2 |
| 20260504185513 | 79 | 130 | 6.0 | 16.0 | 0.00 | 0.00 | 0.00 | 48 | 1010.4 |
| 20260504185011 | 79 | 196 | 5.0 | 21.0 | 0.00 | 0.00 | 0.00 | 47 | 1010.3 |
| 20260504184513 | 80 | 268 | 10.0 | 21.0 | 0.00 | 0.00 | 0.00 | 48 | 1010.4 |
| 20260504184010 | 80 | 236 | 3.0 | 18.0 | 0.00 | 0.00 | 0.00 | 47 | 1010.5 |
| 20260504183510 | 80 | 132 | 5.0 | 18.0 | 0.00 | 0.00 | 0.00 | 50 | 1010.5 |
| 20260504183009 | 80 | 149 | 2.0 | 16.0 | 0.00 | 0.00 | 0.00 | 49 | 1010.6 |
| 20260504182509 | 80 | 293 | 6.0 | 16.0 | 0.00 | 0.00 | 0.00 | 50 | 1010.7 |
| 20260504182007 | 80 | 227 | 3.0 | 18.0 | 0.00 | 0.00 | 0.00 | 51 | 1010.7 |
| 20260504181506 | 79 | 226 | 4.0 | 18.0 | 0.00 | 0.00 | 0.00 | 50 | 1010.7 |
| 20260504181008 | 79 | 217 | 2.0 | 12.0 | 0.00 | 0.00 | 0.00 | 50 | 1010.9 |
| 20260504180505 | 79 | 146 | 5.0 | 14.0 | 0.00 | 0.00 | 0.00 | 47 | 1010.9 |
| 20260504180012 | 79 | 178 | 4.0 | 15.0 | 0.00 | 0.00 | 0.00 | 46 | 1011.0 |
| 20260504175504 | 79 | 263 | 5.0 | 17.0 | 0.00 | 0.00 | 0.00 | 48 | 1011.1 |
| 20260504175005 | 79 | 149 | 5.0 | 14.0 | 0.00 | 0.00 | 0.00 | 48 | 1011.2 |
| 20260504174503 | 79 | 220 | 4.0 | 17.0 | 0.00 | 0.00 | 0.00 | 50 | 1011.3 |
| 20260504174003 | 79 | 340 | 7.0 | 17.0 | 0.00 | 0.00 | 0.00 | 47 | 1011.4 |
| 20260504173502 | 79 | 151 | 5.0 | 16.0 | 0.00 | 0.00 | 0.00 | 50 | 1011.5 |
| 20260504173000 | 79 | 316 | 2.0 | 12.0 | 0.00 | 0.00 | 0.00 | 51 | 1011.7 |
| 20260504172559 | 79 | 107 | 3.0 | 12.0 | 0.00 | 0.00 | 0.00 | 47 | 1011.7 |
| 20260504172058 | 79 | 298 | 2.0 | 11.0 | 0.00 | 0.00 | 0.00 | 49 | 1011.8 |
| 20260504171558 | 78 | 221 | 4.0 | 17.0 | 0.00 | 0.00 | 0.00 | 47 | 1011.8 |
| 20260504171057 | 78 | 326 | 3.0 | 17.0 | 0.00 | 0.00 | 0.00 | 49 | 1012.0 |
| 20260504170556 | 78 | 203 | 3.0 | 20.0 | 0.00 | 0.00 | 0.00 | 48 | 1011.9 |
| 20260504151042 | 74 | 310 | 1.0 | 9.0 | 0.00 | 0.00 | 0.00 | 59 | 1012.7 |
| 20260504150545 | 74 | 107 | 1.0 | 9.0 | 0.00 | 0.00 | 0.00 | 57 | 1012.8 |
| 20260504141032 | 70 | 149 | 1.0 | 7.0 | 0.00 | 0.00 | 0.00 | 66 | 1013.1 |
| 20260504140529 | 70 | 305 | 1.0 | 7.0 | 0.00 | 0.00 | 0.00 | 65 | 1013.1 |
| 20260504130517 | 65 | 264 | 0.0 | 5.0 | 0.00 | 0.00 | 0.00 | 77 | 1013.0 |
| 20260504110510 | 53 | 304 | 0.0 | 0.0 | 0.00 | 0.00 | 0.00 | 97 | 1012.1 |
| 20260504100503 | 53 | 304 | 0.0 | 1.0 | 0.00 | 0.00 | 0.00 | 96 | 1012.5 |
| 20260504081549 | 56 | 304 | 0.0 | 1.0 | 0.00 | 0.00 | 0.00 | 90 | 1012.8 |
| 20260504081048 | 57 | 304 | 0.0 | 1.0 | 0.00 | 0.00 | 0.00 | 90 | 1012.7 |
| 20260504080547 | 57 | 304 | 0.0 | 1.0 | 0.00 | 0.00 | 0.00 | 89 | 1012.8 |
| 20260504050519 | 65 | 274 | 0.0 | 1.0 | 0.00 | 0.00 | 0.00 | 70 | 1013.7 |
| 20260504050017 | 65 | 276 | 0.0 | 1.0 | 0.00 | 0.00 | 0.00 | 70 | 1013.6 |
| 20260504045515 | 65 | 267 | 0.0 | 2.0 | 0.00 | 0.00 | 0.00 | 69 | 1013.7 |
| 20260504045015 | 66 | 264 | 0.0 | 2.0 | 0.00 | 0.00 | 0.00 | 69 | 1013.6 |
| 20260504044516 | 66 | 271 | 0.0 | 1.0 | 0.00 | 0.00 | 0.00 | 69 | 1013.6 |
| 20260504044017 | 66 | 271 | 0.0 | 1.0 | 0.00 | 0.00 | 0.00 | 69 | 1013.5 |
| 20260504043519 | 66 | 270 | 0.0 | 1.0 | 0.00 | 0.00 | 0.00 | 69 | 1013.5 |
| 20260504043016 | 66 | 272 | 0.0 | 2.0 | 0.00 | 0.00 | 0.00 | 68 | 1013.5 |
| 20260504042514 | 66 | 250 | 0.0 | 3.0 | 0.00 | 0.00 | 0.00 | 68 | 1013.6 |
| 20260504042014 | 66 | 235 | 0.0 | 5.0 | 0.00 | 0.00 | 0.00 | 69 | 1013.7 |
| 20260504041515 | 66 | 270 | 0.0 | 5.0 | 0.00 | 0.00 | 0.00 | 69 | 1013.7 |
| 20260504041016 | 66 | 199 | 1.0 | 5.0 | 0.00 | 0.00 | 0.00 | 70 | 1013.8 |
| 20260504040514 | 65 | 251 | 1.0 | 5.0 | 0.00 | 0.00 | 0.00 | 71 | 1013.8 |
| 20260504040014 | 64 | 249 | 0.0 | 3.0 | 0.00 | 0.00 | 0.00 | 74 | 1013.9 |
| 20260504035514 | 64 | 281 | 0.0 | 1.0 | 0.00 | 0.00 | 0.00 | 76 | 1013.9 |
| 20260504035016 | 63 | 280 | 0.0 | 1.0 | 0.00 | 0.00 | 0.00 | 77 | 1013.9 |
| 20260504034523 | 63 | 267 | 0.0 | 0.0 | 0.00 | 0.00 | 0.00 | 77 | 1014.0 |
| 20260504034013 | 63 | 266 | 0.0 | 0.0 | 0.00 | 0.00 | 0.00 | 76 | 1014.0 |
| 20260504033521 | 64 | 266 | 0.0 | 0.0 | 0.00 | 0.00 | 0.00 | 75 | 1014.0 |
| 20260504033015 | 64 | 267 | 0.0 | 0.0 | 0.00 | 0.00 | 0.00 | 74 | 1013.9 |
| 20260504032513 | 64 | 267 | 0.0 | 1.0 | 0.00 | 0.00 | 0.00 | 73 | 1013.9 |
| 20260504032013 | 64 | 267 | 0.0 | 2.0 | 0.00 | 0.00 | 0.00 | 73 | 1014.0 |
| 20260504031513 | 65 | 286 | 0.0 | 4.0 | 0.00 | 0.00 | 0.00 | 73 | 1014.0 |
| 20260504031012 | 64 | 251 | 0.0 | 4.0 | 0.00 | 0.00 | 0.00 | 74 | 1014.0 |
| 20260504030512 | 64 | 271 | 0.0 | 1.0 | 0.00 | 0.00 | 0.00 | 75 | 1014.0 |
| 20260504030012 | 64 | 271 | 0.0 | 1.0 | 0.00 | 0.00 | 0.00 | 75 | 1014.0 |
| 20260504025512 | 64 | 279 | 0.0 | 1.0 | 0.00 | 0.00 | 0.00 | 76 | 1014.0 |
| 20260504025013 | 63 | 280 | 0.0 | 0.0 | 0.00 | 0.00 | 0.00 | 76 | 1014.0 |
| 20260504024512 | 63 | 279 | 0.0 | 0.0 | 0.00 | 0.00 | 0.00 | 76 | 1013.9 |
| 20260504024015 | 64 | 280 | 0.0 | 0.0 | 0.00 | 0.00 | 0.00 | 76 | 1013.9 |
| 20260504023511 | 63 | 280 | 0.0 | 1.0 | 0.00 | 0.00 | 0.00 | 76 | 1013.8 |
| 20260504023012 | 64 | 279 | 0.0 | 1.0 | 0.00 | 0.00 | 0.00 | 76 | 1013.8 |
| 20260504022511 | 63 | 279 | 0.0 | 1.0 | 0.00 | 0.00 | 0.00 | 77 | 1013.7 |
| 20260504022011 | 63 | 279 | 0.0 | 1.0 | 0.00 | 0.00 | 0.00 | 78 | 1013.7 |
| 20260504021511 | 63 | 279 | 0.0 | 1.0 | 0.00 | 0.00 | 0.00 | 77 | 1013.8 |
| 20260504021010 | 63 | 279 | 0.0 | 0.0 | 0.00 | 0.00 | 0.00 | 76 | 1013.7 |
| 20260504020510 | 63 | 279 | 0.0 | 1.0 | 0.00 | 0.00 | 0.00 | 75 | 1013.7 |
| 20260504020010 | 64 | 279 | 0.0 | 1.0 | 0.00 | 0.00 | 0.00 | 75 | 1013.6 |
| 20260504015510 | 64 | 279 | 0.0 | 0.0 | 0.00 | 0.00 | 0.00 | 75 | 1013.6 |
| 20260504015012 | 64 | 279 | 0.0 | 1.0 | 0.00 | 0.00 | 0.00 | 76 | 1013.6 |
| 20260504014517 | 65 | 279 | 0.0 | 1.0 | 0.00 | 0.00 | 0.00 | 74 | 1013.6 |
| 20260504014009 | 65 | 279 | 0.0 | 0.0 | 0.00 | 0.00 | 0.00 | 73 | 1013.6 |
| 20260504013509 | 66 | 279 | 0.0 | 0.0 | 0.00 | 0.00 | 0.00 | 71 | 1013.5 |
| 20260504013009 | 66 | 279 | 0.0 | 1.0 | 0.00 | 0.00 | 0.00 | 69 | 1013.5 |
| 20260504012510 | 67 | 279 | 0.0 | 1.0 | 0.00 | 0.00 | 0.00 | 68 | 1013.5 |
| 20260504012009 | 67 | 279 | 0.0 | 0.0 | 0.00 | 0.00 | 0.00 | 69 | 1013.6 |
| 20260504011510 | 67 | 279 | 0.0 | 1.0 | 0.00 | 0.00 | 0.00 | 68 | 1013.5 |
| 20260504011008 | 68 | 279 | 0.0 | 1.0 | 0.00 | 0.00 | 0.00 | 66 | 1013.5 |
| 20260504010508 | 69 | 279 | 0.0 | 1.0 | 0.00 | 0.00 | 0.00 | 65 | 1013.5 |
| 20260504010009 | 70 | 279 | 0.0 | 0.0 | 0.00 | 0.00 | 0.00 | 61 | 1013.4 |
| 20260504005508 | 71 | 278 | 0.0 | 0.0 | 0.00 | 0.00 | 0.00 | 61 | 1013.4 |
| 20260504005009 | 72 | 278 | 0.0 | 1.0 | 0.00 | 0.00 | 0.00 | 58 | 1013.3 |
| 20260504004508 | 72 | 278 | 0.0 | 1.0 | 0.00 | 0.00 | 0.00 | 57 | 1013.3 |
| 20260504004008 | 73 | 278 | 0.0 | 1.0 | 0.00 | 0.00 | 0.00 | 55 | 1013.4 |
| 20260504003507 | 73 | 278 | 0.0 | 1.0 | 0.00 | 0.00 | 0.00 | 53 | 1013.4 |
| 20260504003007 | 74 | 278 | 0.0 | 1.0 | 0.00 | 0.00 | 0.00 | 53 | 1013.4 |
| 20260504002506 | 74 | 286 | 0.0 | 1.0 | 0.00 | 0.00 | 0.00 | 52 | 1013.4 |
| 20260504002006 | 75 | 284 | 0.0 | 2.0 | 0.00 | 0.00 | 0.00 | 51 | 1013.4 |
| 20260504001612 | 75 | 284 | 0.0 | 2.0 | 0.00 | 0.00 | 0.00 | 51 | 1013.5 |
| 20260504001005 | 75 | 246 | 0.0 | 6.0 | 0.00 | 0.00 | 0.00 | 53 | 1013.5 |
| 20260504000508 | 76 | 295 | 0.0 | 6.0 | 0.00 | 0.00 | 0.00 | 50 | 1013.5 |
| 20260504000005 | 76 | 282 | 0.0 | 4.0 | 0.00 | 0.00 | 0.00 | 49 | 1013.6 |
| 20260503235504 | 76 | 228 | 0.0 | 4.0 | 0.00 | 0.00 | 0.00 | 49 | 1013.6 |
| 20260503235004 | 77 | 313 | 0.0 | 3.0 | 0.00 | 0.00 | 0.00 | 48 | 1013.5 |
| 20260503234507 | 78 | 137 | 0.0 | 3.0 | 0.00 | 0.00 | 0.00 | 49 | 1013.6 |
| 20260503234004 | 78 | 304 | 0.0 | 3.0 | 0.00 | 0.00 | 0.00 | 48 | 1013.7 |
| 20260503233504 | 79 | 104 | 0.0 | 5.0 | 0.00 | 0.00 | 0.00 | 46 | 1013.7 |
| 20260503233003 | 79 | 252 | 1.0 | 5.0 | 0.00 | 0.00 | 0.00 | 46 | 1013.7 |
| 20260503232502 | 79 | 258 | 0.0 | 4.0 | 0.00 | 0.00 | 0.00 | 45 | 1013.7 |
| 20260503232004 | 79 | 277 | 0.0 | 4.0 | 0.00 | 0.00 | 0.00 | 46 | 1013.7 |
| 20260503231502 | 79 | 267 | 1.0 | 4.0 | 0.00 | 0.00 | 0.00 | 44 | 1013.7 |
| 20260503231002 | 79 | 251 | 1.0 | 7.0 | 0.00 | 0.00 | 0.00 | 45 | 1013.7 |
| 20260503230501 | 80 | 250 | 1.0 | 7.0 | 0.00 | 0.00 | 0.00 | 44 | 1013.7 |
| 20260503230002 | 80 | 253 | 0.0 | 6.0 | 0.00 | 0.00 | 0.00 | 45 | 1013.7 |
| 20260503225501 | 80 | 306 | 1.0 | 6.0 | 0.00 | 0.00 | 0.00 | 44 | 1013.7 |
| 20260503225102 | 80 | 271 | 0.0 | 5.0 | 0.00 | 0.00 | 0.00 | 44 | 1013.7 |
| 20260503224600 | 80 | 310 | 0.0 | 5.0 | 0.00 | 0.00 | 0.00 | 46 | 1013.9 |
| 20260503224059 | 80 | 317 | 1.0 | 5.0 | 0.00 | 0.00 | 0.00 | 45 | 1013.9 |
| 20260503223559 | 80 | 187 | 1.0 | 6.0 | 0.00 | 0.00 | 0.00 | 44 | 1014.0 |
| 20260503223058 | 80 | 266 | 2.0 | 6.0 | 0.00 | 0.00 | 0.00 | 44 | 1014.0 |
| 20260503222556 | 80 | 197 | 2.0 | 7.0 | 0.00 | 0.00 | 0.00 | 43 | 1014.2 |
| 20260503222056 | 80 | 244 | 2.0 | 7.0 | 0.00 | 0.00 | 0.00 | 46 | 1014.2 |
| 20260503221557 | 80 | 270 | 1.0 | 6.0 | 0.00 | 0.00 | 0.00 | 43 | 1014.3 |
| 20260503221059 | 80 | 249 | 1.0 | 5.0 | 0.00 | 0.00 | 0.00 | 42 | 1014.3 |
| 20260503220556 | 80 | 303 | 1.0 | 5.0 | 0.00 | 0.00 | 0.00 | 44 | 1014.3 |
| 20260503220058 | 80 | 319 | 0.0 | 6.0 | 0.00 | 0.00 | 0.00 | 44 | 1014.3 |
| 20260503215555 | 80 | 232 | 3.0 | 10.0 | 0.00 | 0.00 | 0.00 | 42 | 1014.4 |
| 20260503215053 | 80 | 213 | 4.0 | 10.0 | 0.00 | 0.00 | 0.00 | 43 | 1014.4 |